Česky Dansk Deutsch English Español Suomi Français Magyar Italiano Nederlands norsk Polski Português svenska Türkçe

 

Het Weer

Evreux (Frankrijk)

04:00, 16 augustus 2016 (GMT)

NWNNE
WE
SWSSE
Home            
Evreux Toussus Le Noble Rouen Chartres Villacoublay Beauvais Paris Met Center Paris / Le Bourget Paris-Orly Paris-Aeroport Charles De Gaulle Creil Fafb Vittefleur / St. Vale La Heve Alencon Chateaudun Melun Orleans Caen Abbeville Le Mans Saint-Quentin Le Touquet Tours

Om een weerknop op uw website of weblog te plaatsen, copieer onderstaande code en plak die in uw pagina. In het eerste vakje staat HTML-code, in het tweede vakje UBB-code.


Add to Google

Details

Wind speed:2 bf, 5 kn, 2.6 m/s, 5.8 miles/h, 9.3 km/h
Wind direction:NNW, 340° - ENE, 060°
Görüş mesafesi:Değerinden büyük 10000 m, 10 km, 32800 ft, 6.2 miles
Clouds:CAVOC
Sıcaklık:11°C, 52°F
Dew-point:9°C, 48°F
Atmosferık basınç:1018 hPa, 763.6 mmHg, 30.06 inHg, 1.005 atm
Relativ humidity:87.5 %
METAR:LFOE 160400Z AUTO 36005KT 340V060 CAVOK 11/09 Q1018

Snelkoppelingen

Actuele weersinformatie van de hele wereld. Voeg locaties toe met het plus (+) symbool. Deze snelkoppelingen kunnen worden toegevoegd aan Google.

Lid van de Technetium groep

website free tracking
StatCounter NetStat W3C Validator

01-10-2022 10:36:46
astro.technetium.be money.technetium.be phote.technetium.be tafeltennistafel.technetium.be www.ligfiets.net